Glendale, Mississippi
Current Conditions -  °F | °C
As of 2:53 AM on Saturday 20 Dec 2014 (Local Time) from KHBG Reporting Station
Overcast Overcast  
Wind Chill: 41°   Ceiling: 700
Heat Index: 46°   Visibility: 10mi
Dew Point: 44°   Wind: 10mph
Humidity: 93%   Direction: 10°N
Pressure: 30.14"   Gusts: NA
Location:  31.1996°N, 89.2694°W
Report Text: KHBG 200853Z AUTO 01009KT 10SM OVC007 08/07 A3014 RMK AO2 RAB28E39 SLP206 P0000 60005 T00780067 53002
Loading
Personal Weather Stations






























Interactive Weather Map New forecast layout! Learn more

10-Day Weather Forecast

Advertisements
Track Severe Weather on mobile